createdAt,value
2019-05-29T00:01:21.919Z,23.20
2019-05-29T00:06:23.555Z,23.10
2019-05-29T00:11:25.103Z,23.90
2019-05-29T00:16:26.644Z,24.60
2019-05-29T00:21:28.169Z,22.07
2019-05-29T00:26:29.835Z,21.83
2019-05-29T00:31:31.518Z,21.43
2019-05-29T00:36:33.298Z,21.40
2019-05-29T00:41:34.752Z,20.97
2019-05-29T00:46:37.029Z,21.37
2019-05-29T00:51:38.566Z,20.53
2019-05-29T00:56:40.345Z,19.90
2019-05-29T01:01:41.801Z,20.87
2019-05-29T01:06:43.735Z,20.07
2019-05-29T01:11:45.097Z,19.47
2019-05-29T01:16:46.909Z,21.00
2019-05-29T01:21:48.709Z,19.90
2019-05-29T01:26:50.136Z,18.60
2019-05-29T01:31:52.455Z,19.30
2019-05-29T01:36:54.339Z,20.37
2019-05-29T01:41:55.800Z,19.80
2019-05-29T01:46:57.630Z,18.23
2019-05-29T01:51:59.109Z,17.40
2019-05-29T01:57:01.207Z,16.60
2019-05-29T02:02:03.404Z,17.53
2019-05-29T02:07:05.178Z,18.43
2019-05-29T02:12:07.158Z,18.23
2019-05-29T02:17:10.978Z,17.40
2019-05-29T02:22:12.862Z,17.63
2019-05-29T02:27:14.418Z,17.90
2019-05-29T02:32:17.542Z,18.17
2019-05-29T02:37:22.187Z,17.70
2019-05-29T02:42:25.197Z,17.40
2019-05-29T02:47:28.075Z,17.33
2019-05-29T02:52:30.889Z,16.90
2019-05-29T02:57:35.372Z,16.60
2019-05-29T03:02:37.289Z,17.00
2019-05-29T03:07:39.275Z,17.30
2019-05-29T03:12:41.148Z,15.57
2019-05-29T03:17:43.107Z,14.80
2019-05-29T03:22:44.980Z,15.23
2019-05-29T03:27:46.905Z,17.17
2019-05-29T03:32:49.218Z,17.73
2019-05-29T03:37:51.023Z,15.77
2019-05-29T03:42:52.473Z,15.63
2019-05-29T03:47:54.321Z,16.40
2019-05-29T03:52:55.737Z,17.73
2019-05-29T03:57:57.333Z,18.87
2019-05-29T04:02:58.909Z,19.50
2019-05-29T04:08:00.503Z,19.77
2019-05-29T04:13:02.505Z,21.87
2019-05-29T04:18:06.183Z,20.33
2019-05-29T04:23:07.951Z,19.70
2019-05-29T04:28:09.540Z,21.17
2019-05-29T04:33:11.043Z,21.30
2019-05-29T04:38:12.540Z,21.77
2019-05-29T04:43:14.030Z,21.07
2019-05-29T04:48:15.617Z,20.37
2019-05-29T04:53:17.115Z,21.33
2019-05-29T04:58:18.847Z,20.90
2019-05-29T05:03:20.270Z,20.07
2019-05-29T05:08:22.015Z,21.23
2019-05-29T05:13:33.454Z,21.20
2019-05-29T05:18:36.590Z,21.40
2019-05-29T05:23:38.267Z,20.70
2019-05-29T05:28:43.424Z,21.03
2019-05-29T05:33:43.447Z,21.50
2019-05-29T05:38:45.232Z,21.10
2019-05-29T05:43:46.818Z,21.40
2019-05-29T05:48:48.630Z,23.53
2019-05-29T05:53:50.074Z,23.80
2019-05-29T05:58:51.585Z,23.77
2019-05-29T06:03:53.209Z,24.80
2019-05-29T06:08:54.716Z,24.37
2019-05-29T06:13:56.179Z,24.80
2019-05-29T06:18:57.806Z,21.17
2019-05-29T06:23:59.556Z,22.90
2019-05-29T06:29:01.097Z,25.40
2019-05-29T06:34:02.629Z,24.80
2019-05-29T06:39:05.610Z,25.00
2019-05-29T06:44:07.249Z,25.90
2019-05-29T06:49:08.856Z,26.37
2019-05-29T06:54:10.760Z,25.57
2019-05-29T06:59:12.223Z,27.20
2019-05-29T07:04:13.737Z,29.43
2019-05-29T07:09:15.401Z,29.60
2019-05-29T07:14:16.933Z,30.07
2019-05-29T07:19:26.618Z,30.57
2019-05-29T07:24:21.980Z,30.30
2019-05-29T07:29:23.811Z,29.60
2019-05-29T07:34:25.487Z,29.70
2019-05-29T07:39:27.102Z,29.53
2019-05-29T07:44:28.570Z,28.77
2019-05-29T07:49:39.013Z,30.13
2019-05-29T07:54:33.541Z,29.53
2019-05-29T07:59:35.130Z,30.77
2019-05-29T08:04:36.671Z,30.10
2019-05-29T08:09:41.362Z,29.23
2019-05-29T08:14:43.721Z,30.37
2019-05-29T08:19:59.267Z,29.13
2019-05-29T08:24:49.495Z,29.50
2019-05-29T08:29:52.530Z,29.57
2019-05-29T08:34:54.017Z,29.40
2019-05-29T08:39:55.714Z,29.43
2019-05-29T08:44:57.326Z,29.30
2019-05-29T08:50:16.702Z,29.10
2019-05-29T08:55:03.345Z,29.30
2019-05-29T09:00:06.303Z,29.40
2019-05-29T09:05:08.621Z,29.67
2019-05-29T09:10:11.377Z,30.43
2019-05-29T09:15:21.968Z,30.23
2019-05-29T09:20:43.277Z,30.57
2019-05-29T09:25:28.787Z,31.87
2019-05-29T09:30:33.494Z,31.23
2019-05-29T09:35:35.735Z,31.87
2019-05-29T09:40:37.825Z,32.67
2019-05-29T09:45:39.528Z,33.10
2019-05-29T09:50:49.922Z,32.70
2019-05-29T09:55:46.503Z,32.90
2019-05-29T10:01:07.332Z,32.90
2019-05-29T10:05:55.815Z,33.00
2019-05-29T10:11:07.497Z,32.67
2019-05-29T10:16:02.757Z,33.53
2019-05-29T10:21:05.127Z,33.10
2019-05-29T10:26:06.853Z,33.43
2019-05-29T10:31:08.653Z,32.27
2019-05-29T10:36:10.223Z,32.90
2019-05-29T10:41:14.290Z,33.60
2019-05-29T10:46:15.751Z,32.90
2019-05-29T10:51:17.408Z,33.40
2019-05-29T10:56:21.344Z,32.90
2019-05-29T11:01:22.997Z,32.80
2019-05-29T11:06:24.453Z,33.50
2019-05-29T11:11:26.150Z,33.47
2019-05-29T11:16:28.531Z,34.30
2019-05-29T11:21:30.103Z,33.33
2019-05-29T11:26:32.239Z,33.47
2019-05-29T11:31:34.205Z,33.13
2019-05-29T11:36:35.849Z,33.83
2019-05-29T11:41:37.630Z,34.10
2019-05-29T11:46:39.094Z,33.77
2019-05-29T11:51:44.293Z,34.40
2019-05-29T11:56:43.994Z,33.80
2019-05-29T12:01:50.398Z,33.57
2019-05-29T12:06:49.308Z,33.20
2019-05-29T12:11:51.778Z,33.50
2019-05-29T12:16:54.303Z,33.00
2019-05-29T12:21:56.482Z,32.93
2019-05-29T12:26:58.560Z,33.43
2019-05-29T12:32:02.222Z,33.73
2019-05-29T12:37:04.029Z,33.47
2019-05-29T12:42:06.769Z,33.70
2019-05-29T12:47:08.361Z,34.60
2019-05-29T12:52:10.310Z,32.80
2019-05-29T12:57:12.054Z,33.13
2019-05-29T13:02:14.014Z,33.50
2019-05-29T13:07:15.488Z,34.30
2019-05-29T13:12:22.240Z,35.33
2019-05-29T13:17:24.917Z,34.77
2019-05-29T13:22:26.422Z,34.20
2019-05-29T13:27:27.856Z,34.87
2019-05-29T13:32:29.857Z,34.23
2019-05-29T13:37:31.281Z,34.00
2019-05-29T13:42:33.181Z,34.00
2019-05-29T13:47:35.027Z,34.40
2019-05-29T13:52:36.610Z,34.90
2019-05-29T13:57:40.064Z,34.67
2019-05-29T14:02:43.102Z,35.17
2019-05-29T14:07:44.530Z,34.60
2019-05-29T14:12:46.123Z,34.90
2019-05-29T14:17:47.592Z,35.87
2019-05-29T14:22:49.161Z,35.00
2019-05-29T14:27:50.613Z,35.03
2019-05-29T14:32:53.550Z,34.70
2019-05-29T14:37:55.211Z,35.00
2019-05-29T14:42:56.969Z,34.33
2019-05-29T14:47:58.529Z,34.97
2019-05-29T14:53:00.146Z,35.30
2019-05-29T14:58:01.723Z,35.03
2019-05-29T15:03:05.199Z,35.57
2019-05-29T15:08:07.996Z,35.83
2019-05-29T15:13:11.091Z,35.50
2019-05-29T15:18:17.334Z,35.17
2019-05-29T15:23:17.026Z,35.43
2019-05-29T15:28:18.547Z,36.30
2019-05-29T15:33:27.144Z,34.90
2019-05-29T15:38:29.520Z,35.37
2019-05-29T15:43:31.241Z,34.77
2019-05-29T15:48:32.625Z,35.40
2019-05-29T15:53:34.301Z,36.33
2019-05-29T15:58:35.842Z,36.13
2019-05-29T16:03:37.376Z,35.77
2019-05-29T16:08:39.666Z,35.50
2019-05-29T16:13:41.094Z,36.63
2019-05-29T16:18:43.270Z,37.13
2019-05-29T16:23:44.816Z,36.77
2019-05-29T16:33:54.549Z,37.00
2019-05-29T16:38:56.469Z,37.33
2019-05-29T16:43:58.035Z,36.40
2019-05-29T16:48:59.702Z,35.67
2019-05-29T16:54:01.390Z,36.57
2019-05-29T16:59:02.983Z,36.93
2019-05-29T17:04:04.564Z,35.70
2019-05-29T17:09:08.395Z,36.13
2019-05-29T17:14:10.192Z,36.53
2019-05-29T17:19:11.984Z,37.00
2019-05-29T17:24:16.573Z,36.17
2019-05-29T17:29:18.885Z,35.67
2019-05-29T17:34:25.654Z,36.97
2019-05-29T17:39:28.357Z,37.27
2019-05-29T17:44:31.845Z,36.87
2019-05-29T17:49:34.759Z,37.77
2019-05-29T17:54:36.705Z,37.13
2019-05-29T17:59:38.403Z,37.40
2019-05-29T18:04:40.095Z,36.60
2019-05-29T18:09:42.341Z,36.70
2019-05-29T18:14:44.190Z,37.30
2019-05-29T18:19:46.042Z,36.47
2019-05-29T18:24:47.862Z,36.80
2019-05-29T18:29:49.684Z,36.63
2019-05-29T18:34:56.115Z,36.30
2019-05-29T18:39:56.002Z,36.90
2019-05-29T18:44:58.101Z,36.40
2019-05-29T18:50:00.072Z,37.10
2019-05-29T18:55:03.741Z,36.80
2019-05-29T19:00:06.642Z,36.50
2019-05-29T19:05:10.589Z,36.20
2019-05-29T19:10:13.198Z,36.37
2019-05-29T19:15:15.231Z,36.90
2019-05-29T19:20:17.089Z,36.67
2019-05-29T19:25:19.006Z,36.90
2019-05-29T19:30:20.851Z,38.13
2019-05-29T19:35:23.479Z,36.47
2019-05-29T19:40:26.103Z,37.07
2019-05-29T19:45:28.603Z,36.30
2019-05-29T19:50:30.911Z,37.10
2019-05-29T19:55:36.569Z,36.00
2019-05-29T20:00:37.151Z,36.90
2019-05-29T20:05:38.776Z,37.07
2019-05-29T20:10:40.609Z,37.23
2019-05-29T20:15:42.408Z,37.40
2019-05-29T20:20:45.833Z,36.77
2019-05-29T20:25:48.317Z,36.93
2019-05-29T20:30:50.199Z,37.07
2019-05-29T20:35:51.888Z,35.67
2019-05-29T20:40:53.517Z,36.27
2019-05-29T20:45:55.673Z,35.63
2019-05-29T20:50:57.234Z,35.47
2019-05-29T20:55:58.795Z,34.70
2019-05-29T21:01:03.169Z,34.87
2019-05-29T21:06:04.494Z,34.27
2019-05-29T21:11:06.155Z,34.13
2019-05-29T21:16:07.672Z,33.93
2019-05-29T21:21:09.275Z,33.40
2019-05-29T21:26:10.753Z,33.50
2019-05-29T21:31:12.436Z,32.90
2019-05-29T21:36:13.973Z,31.80
2019-05-29T21:41:15.483Z,31.90
2019-05-29T21:46:17.246Z,32.50
2019-05-29T21:51:18.876Z,32.63
2019-05-29T21:56:22.306Z,32.13
2019-05-29T22:01:24.203Z,32.63
2019-05-29T22:06:26.204Z,32.37
2019-05-29T22:11:28.221Z,34.10
2019-05-29T22:16:29.797Z,34.30
2019-05-29T22:21:31.317Z,34.00
2019-05-29T22:26:32.862Z,34.10
2019-05-29T22:31:36.214Z,33.50
2019-05-29T22:36:38.040Z,34.47
2019-05-29T22:41:39.579Z,35.07
2019-05-29T22:46:41.302Z,34.63
2019-05-29T22:51:42.751Z,34.97
2019-05-29T22:56:44.292Z,33.47
2019-05-29T23:01:45.733Z,33.20
2019-05-29T23:06:47.208Z,33.93
2019-05-29T23:11:52.148Z,33.37
2019-05-29T23:16:54.362Z,32.77
2019-05-29T23:21:56.508Z,33.20
2019-05-29T23:26:58.936Z,32.43
2019-05-29T23:32:01.021Z,32.80
2019-05-29T23:37:03.363Z,32.63
2019-05-29T23:42:05.338Z,32.50
2019-05-29T23:47:07.014Z,32.33
2019-05-29T23:52:10.760Z,33.10
2019-05-29T23:57:12.642Z,31.53
